SPHO/AYP METAR and TAF weather

Enter ICAO airport designator
Station Type Date Time Source
SPHO METAR 2022/01/17 23:00 UTC NOAA

SPHO 172300Z VRB01KT 9999 VCTS FEW030CB BKN080 21/06 Q1022 RMK TS W PP000


Station Type Date Time Source
SPHO Decoded METAR 2022/01/17 23:00 UTC NOAA

Ayacucho, Peru (SPHO) 13-08S 074-13W 2749M
Jan 17, 2022 - 06:00 PM EST / 2022.01.17 2300 UTC
Wind: Variable at 1 MPH (1 KT):0
Visibility: greater than 7 mile(s):0
Sky conditions: mostly cloudy
Weather: thunder in the vicinity; Cumulonimbus clouds observed
Temperature: 69 F (21 C)
Dew Point: 42 F (6 C)
Relative Humidity: 37%
Pressure (altimeter): 30.18 in. Hg (1022 hPa)
ob: SPHO 172300Z VRB01KT 9999 VCTS FEW030CB BKN080 21/06 Q1022 RMK TS W PP000
cycle: 23

Station Type Date Time Source
SPHO TAF 2022/01/17 18:33 UTC NOAA

SPHO 171700Z 1718/1818 VRB06KT 9999 FEW025TCU SCT040 TX26/1719Z TN14/1811Z
TEMPO 1719/1721 15010KT
BECMG 1722/1723 FEW040 SCT100

Example: see airport list